sensor_id;sensor_type;location;lat;lon;timestamp;temperature;humidity
1005;DHT22;491;53.480;10.174;2023-04-25T00:01:17;9.40;99.90
1005;DHT22;491;53.480;10.174;2023-04-25T00:03:44;9.40;99.90
1005;DHT22;491;53.480;10.174;2023-04-25T00:06:09;9.40;99.90
1005;DHT22;491;53.480;10.174;2023-04-25T00:08:35;9.50;99.90
1005;DHT22;491;53.480;10.174;2023-04-25T00:11:01;9.40;99.90
1005;DHT22;491;53.480;10.174;2023-04-25T00:13:27;9.40;99.90
1005;DHT22;491;53.480;10.174;2023-04-25T00:15:53;9.50;99.90
1005;DHT22;491;53.480;10.174;2023-04-25T00:18:19;9.60;99.90
1005;DHT22;491;53.480;10.174;2023-04-25T00:20:45;9.50;99.90
1005;DHT22;491;53.480;10.174;2023-04-25T00:23:13;9.40;99.90
1005;DHT22;491;53.480;10.174;2023-04-25T00:25:44;9.40;99.90
1005;DHT22;491;53.480;10.174;2023-04-25T00:28:10;9.40;99.90
1005;DHT22;491;53.480;10.174;2023-04-25T00:30:36;9.40;99.90
1005;DHT22;491;53.480;10.174;2023-04-25T00:33:01;9.40;99.90
1005;DHT22;491;53.480;10.174;2023-04-25T00:35:27;9.40;99.90
1005;DHT22;491;53.480;10.174;2023-04-25T00:37:52;9.50;99.90
1005;DHT22;491;53.480;10.174;2023-04-25T00:40:19;9.50;99.90
1005;DHT22;491;53.480;10.174;2023-04-25T00:42:45;9.40;99.90
1005;DHT22;491;53.480;10.174;2023-04-25T00:45:14;9.40;99.90
1005;DHT22;491;53.480;10.174;2023-04-25T00:47:42;9.30;99.90
1005;DHT22;491;53.480;10.174;2023-04-25T00:50:08;9.30;99.90
1005;DHT22;491;53.480;10.174;2023-04-25T00:52:34;9.30;99.90
1005;DHT22;491;53.480;10.174;2023-04-25T00:54:59;9.30;99.90
1005;DHT22;491;53.480;10.174;2023-04-25T00:57:25;9.30;99.90
1005;DHT22;491;53.480;10.174;2023-04-25T00:59:52;9.30;99.90
1005;DHT22;491;53.480;10.174;2023-04-25T01:02:18;9.20;99.90
1005;DHT22;491;53.480;10.174;2023-04-25T01:04:46;9.10;99.90
1005;DHT22;491;53.480;10.174;2023-04-25T01:07:12;9.20;99.90
1005;DHT22;491;53.480;10.174;2023-04-25T01:09:39;9.20;99.90
1005;DHT22;491;53.480;10.174;2023-04-25T01:12:05;9.10;99.90
1005;DHT22;491;53.480;10.174;2023-04-25T01:14:35;9.20;99.90
1005;DHT22;491;53.480;10.174;2023-04-25T01:17:04;9.20;99.90
1005;DHT22;491;53.480;10.174;2023-04-25T01:19:30;9.10;99.90
1005;DHT22;491;53.480;10.174;2023-04-25T01:21:56;9.00;99.90
1005;DHT22;491;53.480;10.174;2023-04-25T01:24:21;8.90;99.90
1005;DHT22;491;53.480;10.174;2023-04-25T01:26:47;9.00;99.90
1005;DHT22;491;53.480;10.174;2023-04-25T01:29:19;8.90;99.90
1005;DHT22;491;53.480;10.174;2023-04-25T01:31:46;9.00;99.90
1005;DHT22;491;53.480;10.174;2023-04-25T01:34:12;9.10;99.90
1005;DHT22;491;53.480;10.174;2023-04-25T01:36:38;9.10;99.90
1005;DHT22;491;53.480;10.174;2023-04-25T01:39:04;9.00;99.90
1005;DHT22;491;53.480;10.174;2023-04-25T01:41:30;9.00;99.90
1005;DHT22;491;53.480;10.174;2023-04-25T01:43:56;9.00;99.90
1005;DHT22;491;53.480;10.174;2023-04-25T01:46:22;8.90;99.90
1005;DHT22;491;53.480;10.174;2023-04-25T01:48:50;9.00;99.90
1005;DHT22;491;53.480;10.174;2023-04-25T01:51:16;9.00;99.90
1005;DHT22;491;53.480;10.174;2023-04-25T01:53:42;9.00;99.90
1005;DHT22;491;53.480;10.174;2023-04-25T01:56:08;9.00;99.90
1005;DHT22;491;53.480;10.174;2023-04-25T01:58:33;9.00;99.90
1005;DHT22;491;53.480;10.174;2023-04-25T02:00:59;8.90;99.90
1005;DHT22;491;53.480;10.174;2023-04-25T02:03:24;8.80;90.30
1005;DHT22;491;53.480;10.174;2023-04-25T02:05:50;8.70;97.60
1005;DHT22;491;53.480;10.174;2023-04-25T02:08:17;8.80;97.40
1005;DHT22;491;53.480;10.174;2023-04-25T02:10:42;8.70;28.40
1005;DHT22;491;53.480;10.174;2023-04-25T02:13:08;8.60;30.00
1005;DHT22;491;53.480;10.174;2023-04-25T02:15:34;8.60;19.40
1005;DHT22;491;53.480;10.174;2023-04-25T02:17:59;8.50;1.00
1005;DHT22;491;53.480;10.174;2023-04-25T02:20:26;8.50;1.00
1005;DHT22;491;53.480;10.174;2023-04-25T02:22:52;8.50;1.00
1005;DHT22;491;53.480;10.174;2023-04-25T02:25:19;8.50;1.00
1005;DHT22;491;53.480;10.174;2023-04-25T02:27:46;8.60;1.00
1005;DHT22;491;53.480;10.174;2023-04-25T02:30:11;8.60;1.00
1005;DHT22;491;53.480;10.174;2023-04-25T02:32:38;8.70;1.00
1005;DHT22;491;53.480;10.174;2023-04-25T02:35:07;8.60;1.00
1005;DHT22;491;53.480;10.174;2023-04-25T02:37:34;8.60;1.00
1005;DHT22;491;53.480;10.174;2023-04-25T02:40:00;8.60;1.00
1005;DHT22;491;53.480;10.174;2023-04-25T02:42:26;8.60;1.00
1005;DHT22;491;53.480;10.174;2023-04-25T02:44:52;8.60;1.00
1005;DHT22;491;53.480;10.174;2023-04-25T02:47:17;8.60;1.00
1005;DHT22;491;53.480;10.174;2023-04-25T02:49:43;8.50;1.00
1005;DHT22;491;53.480;10.174;2023-04-25T02:52:11;8.40;1.00
1005;DHT22;491;53.480;10.174;2023-04-25T02:54:38;8.40;1.00
1005;DHT22;491;53.480;10.174;2023-04-25T02:57:06;8.40;1.00
1005;DHT22;491;53.480;10.174;2023-04-25T02:59:32;8.50;1.00
1005;DHT22;491;53.480;10.174;2023-04-25T03:01:57;8.50;1.00
1005;DHT22;491;53.480;10.174;2023-04-25T03:04:23;8.40;1.00
1005;DHT22;491;53.480;10.174;2023-04-25T03:06:52;8.40;1.00
1005;DHT22;491;53.480;10.174;2023-04-25T03:09:19;8.40;1.00
1005;DHT22;491;53.480;10.174;2023-04-25T03:11:45;8.30;1.00
1005;DHT22;491;53.480;10.174;2023-04-25T03:14:11;8.30;1.00
1005;DHT22;491;53.480;10.174;2023-04-25T03:16:36;8.30;1.00
1005;DHT22;491;53.480;10.174;2023-04-25T03:19:03;8.20;99.90
1005;DHT22;491;53.480;10.174;2023-04-25T03:21:29;8.20;99.90
1005;DHT22;491;53.480;10.174;2023-04-25T03:23:57;8.20;99.90
1005;DHT22;491;53.480;10.174;2023-04-25T03:26:22;8.20;99.90
1005;DHT22;491;53.480;10.174;2023-04-25T03:28:48;8.20;99.90
1005;DHT22;491;53.480;10.174;2023-04-25T03:31:13;8.20;99.90
1005;DHT22;491;53.480;10.174;2023-04-25T03:33:39;8.10;99.90
1005;DHT22;491;53.480;10.174;2023-04-25T03:36:04;8.10;99.90
1005;DHT22;491;53.480;10.174;2023-04-25T03:38:30;8.00;1.00
1005;DHT22;491;53.480;10.174;2023-04-25T03:40:56;8.10;1.00
1005;DHT22;491;53.480;10.174;2023-04-25T03:43:22;8.10;1.00
1005;DHT22;491;53.480;10.174;2023-04-25T03:45:47;8.00;1.00
1005;DHT22;491;53.480;10.174;2023-04-25T03:48:13;8.00;1.00
1005;DHT22;491;53.480;10.174;2023-04-25T03:50:38;8.00;99.90
1005;DHT22;491;53.480;10.174;2023-04-25T03:53:04;8.00;99.90
1005;DHT22;491;53.480;10.174;2023-04-25T03:55:29;7.90;99.90
1005;DHT22;491;53.480;10.174;2023-04-25T03:57:57;7.80;99.90
1005;DHT22;491;53.480;10.174;2023-04-25T04:00:25;7.70;99.90
1005;DHT22;491;53.480;10.174;2023-04-25T04:02:51;7.70;99.90
1005;DHT22;491;53.480;10.174;2023-04-25T04:05:16;7.70;99.90
1005;DHT22;491;53.480;10.174;2023-04-25T04:07:42;7.70;99.90
1005;DHT22;491;53.480;10.174;2023-04-25T04:10:09;7.70;99.90
1005;DHT22;491;53.480;10.174;2023-04-25T04:12:35;7.80;99.90
1005;DHT22;491;53.480;10.174;2023-04-25T04:15:04;7.70;90.90
1005;DHT22;491;53.480;10.174;2023-04-25T04:17:30;7.70;1.00
1005;DHT22;491;53.480;10.174;2023-04-25T04:19:56;7.70;99.90
1005;DHT22;491;53.480;10.174;2023-04-25T04:22:22;7.60;99.90
1005;DHT22;491;53.480;10.174;2023-04-25T04:24:54;7.80;1.00
1005;DHT22;491;53.480;10.174;2023-04-25T04:27:21;7.90;85.80
1005;DHT22;491;53.480;10.174;2023-04-25T04:29:47;8.00;99.90
1005;DHT22;491;53.480;10.174;2023-04-25T04:32:14;8.10;21.40
1005;DHT22;491;53.480;10.174;2023-04-25T04:34:40;8.00;99.90
1005;DHT22;491;53.480;10.174;2023-04-25T04:37:07;7.90;1.00
1005;DHT22;491;53.480;10.174;2023-04-25T04:39:33;7.80;35.40
1005;DHT22;491;53.480;10.174;2023-04-25T04:41:59;7.80;1.00
1005;DHT22;491;53.480;10.174;2023-04-25T04:44:27;7.80;1.00
1005;DHT22;491;53.480;10.174;2023-04-25T04:46:54;7.70;99.90
1005;DHT22;491;53.480;10.174;2023-04-25T04:49:20;7.60;99.90
1005;DHT22;491;53.480;10.174;2023-04-25T04:51:46;7.60;99.90
1005;DHT22;491;53.480;10.174;2023-04-25T04:54:12;7.60;99.90
1005;DHT22;491;53.480;10.174;2023-04-25T04:56:37;7.70;99.90
1005;DHT22;491;53.480;10.174;2023-04-25T04:59:03;7.60;99.90
1005;DHT22;491;53.480;10.174;2023-04-25T05:01:29;7.70;1.00
1005;DHT22;491;53.480;10.174;2023-04-25T05:03:55;7.70;1.00
1005;DHT22;491;53.480;10.174;2023-04-25T05:06:26;7.80;1.00
1005;DHT22;491;53.480;10.174;2023-04-25T05:08:52;7.80;1.00
1005;DHT22;491;53.480;10.174;2023-04-25T05:11:18;7.90;1.00
1005;DHT22;491;53.480;10.174;2023-04-25T05:13:44;8.00;1.00
1005;DHT22;491;53.480;10.174;2023-04-25T05:16:09;8.00;99.90
1005;DHT22;491;53.480;10.174;2023-04-25T05:18:35;8.00;16.90
1005;DHT22;491;53.480;10.174;2023-04-25T05:21:01;8.00;99.90
1005;DHT22;491;53.480;10.174;2023-04-25T05:23:27;8.20;99.90
1005;DHT22;491;53.480;10.174;2023-04-25T05:25:53;8.40;99.90
1005;DHT22;491;53.480;10.174;2023-04-25T05:28:18;8.40;1.00
1005;DHT22;491;53.480;10.174;2023-04-25T05:30:44;8.40;1.00
1005;DHT22;491;53.480;10.174;2023-04-25T05:33:09;8.50;1.00
1005;DHT22;491;53.480;10.174;2023-04-25T05:35:35;8.30;16.30
1005;DHT22;491;53.480;10.174;2023-04-25T05:38:00;8.30;46.40
1005;DHT22;491;53.480;10.174;2023-04-25T05:40:27;8.30;99.90
1005;DHT22;491;53.480;10.174;2023-04-25T05:42:52;8.30;1.00
1005;DHT22;491;53.480;10.174;2023-04-25T05:45:18;8.20;1.00
1005;DHT22;491;53.480;10.174;2023-04-25T05:47:43;8.00;1.00
1005;DHT22;491;53.480;10.174;2023-04-25T05:50:09;7.80;1.00
1005;DHT22;491;53.480;10.174;2023-04-25T05:52:35;7.80;1.00
1005;DHT22;491;53.480;10.174;2023-04-25T05:55:00;7.80;1.00
1005;DHT22;491;53.480;10.174;2023-04-25T05:57:27;7.80;99.90
1005;DHT22;491;53.480;10.174;2023-04-25T05:59:53;7.90;99.90
1005;DHT22;491;53.480;10.174;2023-04-25T06:02:19;8.00;99.90
1005;DHT22;491;53.480;10.174;2023-04-25T06:04:46;8.10;99.90
1005;DHT22;491;53.480;10.174;2023-04-25T06:07:12;8.20;99.90
1005;DHT22;491;53.480;10.174;2023-04-25T06:09:38;8.30;99.90
1005;DHT22;491;53.480;10.174;2023-04-25T06:12:05;8.40;99.90
1005;DHT22;491;53.480;10.174;2023-04-25T06:14:31;8.40;1.00
1005;DHT22;491;53.480;10.174;2023-04-25T06:16:56;8.40;99.90
1005;DHT22;491;53.480;10.174;2023-04-25T06:19:25;8.50;99.90
1005;DHT22;491;53.480;10.174;2023-04-25T06:21:50;8.50;1.00
1005;DHT22;491;53.480;10.174;2023-04-25T06:24:16;8.60;1.00
1005;DHT22;491;53.480;10.174;2023-04-25T06:26:41;8.60;99.90
1005;DHT22;491;53.480;10.174;2023-04-25T06:29:10;8.60;1.00
1005;DHT22;491;53.480;10.174;2023-04-25T06:31:35;8.60;1.00
1005;DHT22;491;53.480;10.174;2023-04-25T06:34:01;8.70;1.00
1005;DHT22;491;53.480;10.174;2023-04-25T06:36:27;8.90;99.90
1005;DHT22;491;53.480;10.174;2023-04-25T06:38:53;9.00;1.00
1005;DHT22;491;53.480;10.174;2023-04-25T06:41:19;9.00;1.00
1005;DHT22;491;53.480;10.174;2023-04-25T06:43:45;9.10;1.00
1005;DHT22;491;53.480;10.174;2023-04-25T06:46:10;9.20;94.70
1005;DHT22;491;53.480;10.174;2023-04-25T06:48:36;9.10;99.90
1005;DHT22;491;53.480;10.174;2023-04-25T06:51:02;8.90;99.90
1005;DHT22;491;53.480;10.174;2023-04-25T06:53:27;8.70;99.90
1005;DHT22;491;53.480;10.174;2023-04-25T06:55:53;8.70;99.90
1005;DHT22;491;53.480;10.174;2023-04-25T06:58:21;8.60;99.90
1005;DHT22;491;53.480;10.174;2023-04-25T07:00:47;8.60;1.00
1005;DHT22;491;53.480;10.174;2023-04-25T07:03:12;8.60;1.00
1005;DHT22;491;53.480;10.174;2023-04-25T07:05:38;8.70;99.90
1005;DHT22;491;53.480;10.174;2023-04-25T07:08:04;8.80;99.90
1005;DHT22;491;53.480;10.174;2023-04-25T07:10:30;9.10;99.90
1005;DHT22;491;53.480;10.174;2023-04-25T07:12:55;9.30;99.90
1005;DHT22;491;53.480;10.174;2023-04-25T07:15:21;9.40;1.00
1005;DHT22;491;53.480;10.174;2023-04-25T07:17:46;9.40;1.00
1005;DHT22;491;53.480;10.174;2023-04-25T07:20:12;9.70;1.00
1005;DHT22;491;53.480;10.174;2023-04-25T07:22:37;9.90;99.90
1005;DHT22;491;53.480;10.174;2023-04-25T07:25:03;10.20;27.60
1005;DHT22;491;53.480;10.174;2023-04-25T07:27:29;10.10;63.70
1005;DHT22;491;53.480;10.174;2023-04-25T07:30:01;10.00;1.00
1005;DHT22;491;53.480;10.174;2023-04-25T07:32:27;10.10;99.90
1005;DHT22;491;53.480;10.174;2023-04-25T07:34:54;10.20;99.90
1005;DHT22;491;53.480;10.174;2023-04-25T07:37:19;10.30;86.00
1005;DHT22;491;53.480;10.174;2023-04-25T07:39:45;10.60;99.90
1005;DHT22;491;53.480;10.174;2023-04-25T07:42:15;10.70;1.00
1005;DHT22;491;53.480;10.174;2023-04-25T07:44:42;10.90;1.00
1005;DHT22;491;53.480;10.174;2023-04-25T07:47:09;10.70;99.90
1005;DHT22;491;53.480;10.174;2023-04-25T07:49:37;10.50;99.90
1005;DHT22;491;53.480;10.174;2023-04-25T07:52:13;10.60;99.90
1005;DHT22;491;53.480;10.174;2023-04-25T07:54:50;10.50;99.90
1005;DHT22;491;53.480;10.174;2023-04-25T07:57:16;10.30;1.00
1005;DHT22;491;53.480;10.174;2023-04-25T07:59:43;10.20;1.00
1005;DHT22;491;53.480;10.174;2023-04-25T08:02:12;10.40;1.00
1005;DHT22;491;53.480;10.174;2023-04-25T08:04:45;10.30;1.00
1005;DHT22;491;53.480;10.174;2023-04-25T08:07:11;10.20;1.00
1005;DHT22;491;53.480;10.174;2023-04-25T08:09:40;10.30;1.00
1005;DHT22;491;53.480;10.174;2023-04-25T08:12:06;10.50;99.90
1005;DHT22;491;53.480;10.174;2023-04-25T08:14:38;10.70;99.90
1005;DHT22;491;53.480;10.174;2023-04-25T08:17:12;11.10;99.90
1005;DHT22;491;53.480;10.174;2023-04-25T08:19:38;11.60;99.90
1005;DHT22;491;53.480;10.174;2023-04-25T08:22:14;11.80;99.90
1005;DHT22;491;53.480;10.174;2023-04-25T08:24:45;12.30;99.90
1005;DHT22;491;53.480;10.174;2023-04-25T08:27:11;13.20;87.10
1005;DHT22;491;53.480;10.174;2023-04-25T08:29:38;13.80;17.40
1005;DHT22;491;53.480;10.174;2023-04-25T08:32:03;13.80;1.00
1005;DHT22;491;53.480;10.174;2023-04-25T08:34:29;13.50;1.00
1005;DHT22;491;53.480;10.174;2023-04-25T08:36:55;13.20;1.00
1005;DHT22;491;53.480;10.174;2023-04-25T08:39:23;13.00;1.00
1005;DHT22;491;53.480;10.174;2023-04-25T08:41:53;12.60;1.00
1005;DHT22;491;53.480;10.174;2023-04-25T08:44:19;12.30;1.00
1005;DHT22;491;53.480;10.174;2023-04-25T08:46:47;12.20;1.00
1005;DHT22;491;53.480;10.174;2023-04-25T08:49:17;12.20;1.00
1005;DHT22;491;53.480;10.174;2023-04-25T08:51:46;12.10;28.40
1005;DHT22;491;53.480;10.174;2023-04-25T08:54:13;12.20;28.70
1005;DHT22;491;53.480;10.174;2023-04-25T08:56:47;12.30;13.90
1005;DHT22;491;53.480;10.174;2023-04-25T08:59:13;12.20;8.90
1005;DHT22;491;53.480;10.174;2023-04-25T09:01:39;12.00;18.40
1005;DHT22;491;53.480;10.174;2023-04-25T09:04:04;12.50;16.70
1005;DHT22;491;53.480;10.174;2023-04-25T09:06:30;13.20;14.40
1005;DHT22;491;53.480;10.174;2023-04-25T09:09:07;13.60;1.00
1005;DHT22;491;53.480;10.174;2023-04-25T09:11:34;13.30;1.00
1005;DHT22;491;53.480;10.174;2023-04-25T09:14:20;13.00;1.00
1005;DHT22;491;53.480;10.174;2023-04-25T09:19:35;12.50;1.00
1005;DHT22;491;53.480;10.174;2023-04-25T09:22:04;11.80;13.00
1005;DHT22;491;53.480;10.174;2023-04-25T09:24:40;11.40;72.80
1005;DHT22;491;53.480;10.174;2023-04-25T09:27:19;11.20;64.30
1005;DHT22;491;53.480;10.174;2023-04-25T09:29:45;11.30;71.30
1005;DHT22;491;53.480;10.174;2023-04-25T09:32:23;11.10;52.30
1005;DHT22;491;53.480;10.174;2023-04-25T09:34:50;10.80;45.70
1005;DHT22;491;53.480;10.174;2023-04-25T09:37:30;10.70;62.60
1005;DHT22;491;53.480;10.174;2023-04-25T09:39:59;10.40;99.90
1005;DHT22;491;53.480;10.174;2023-04-25T09:42:29;10.50;99.90
1005;DHT22;491;53.480;10.174;2023-04-25T09:45:06;10.40;99.90
1005;DHT22;491;53.480;10.174;2023-04-25T09:47:37;10.30;99.90
1005;DHT22;491;53.480;10.174;2023-04-25T09:50:17;10.40;99.90
1005;DHT22;491;53.480;10.174;2023-04-25T09:52:44;11.00;99.90
1005;DHT22;491;53.480;10.174;2023-04-25T09:55:11;11.80;99.90
1005;DHT22;491;53.480;10.174;2023-04-25T09:57:39;12.50;87.30
1005;DHT22;491;53.480;10.174;2023-04-25T10:00:06;13.30;45.80
1005;DHT22;491;53.480;10.174;2023-04-25T10:02:38;13.30;49.10
1005;DHT22;491;53.480;10.174;2023-04-25T10:05:06;13.00;99.90
1005;DHT22;491;53.480;10.174;2023-04-25T10:07:33;13.10;99.90
1005;DHT22;491;53.480;10.174;2023-04-25T10:10:02;13.00;99.90
1005;DHT22;491;53.480;10.174;2023-04-25T10:12:29;12.80;99.90
1005;DHT22;491;53.480;10.174;2023-04-25T10:14:58;12.80;99.90
1005;DHT22;491;53.480;10.174;2023-04-25T10:17:24;12.60;53.80
1005;DHT22;491;53.480;10.174;2023-04-25T10:19:49;12.80;99.90
1005;DHT22;491;53.480;10.174;2023-04-25T10:22:37;13.40;99.90
1005;DHT22;491;53.480;10.174;2023-04-25T10:25:04;14.30;99.90
1005;DHT22;491;53.480;10.174;2023-04-25T10:27:30;14.80;99.90
1005;DHT22;491;53.480;10.174;2023-04-25T10:30:03;15.10;99.90
1005;DHT22;491;53.480;10.174;2023-04-25T10:32:31;16.10;99.90
1005;DHT22;491;53.480;10.174;2023-04-25T10:34:57;17.00;99.90
1005;DHT22;491;53.480;10.174;2023-04-25T10:37:24;17.40;99.90
1005;DHT22;491;53.480;10.174;2023-04-25T10:39:49;17.70;98.10
1005;DHT22;491;53.480;10.174;2023-04-25T10:42:15;16.80;1.00
1005;DHT22;491;53.480;10.174;2023-04-25T10:44:40;16.00;1.00
1005;DHT22;491;53.480;10.174;2023-04-25T10:47:35;15.50;1.00
1005;DHT22;491;53.480;10.174;2023-04-25T10:50:05;16.10;1.00
1005;DHT22;491;53.480;10.174;2023-04-25T10:52:33;16.80;1.00
1005;DHT22;491;53.480;10.174;2023-04-25T10:54:58;17.50;1.00
1005;DHT22;491;53.480;10.174;2023-04-25T11:00:06;17.70;1.00
1005;DHT22;491;53.480;10.174;2023-04-25T11:02:45;16.90;1.00
1005;DHT22;491;53.480;10.174;2023-04-25T11:05:31;15.80;1.00
1005;DHT22;491;53.480;10.174;2023-04-25T11:07:58;15.60;1.00
1005;DHT22;491;53.480;10.174;2023-04-25T11:10:27;15.10;1.00
1005;DHT22;491;53.480;10.174;2023-04-25T11:12:53;15.50;1.00
1005;DHT22;491;53.480;10.174;2023-04-25T11:15:18;16.10;1.00
1005;DHT22;491;53.480;10.174;2023-04-25T11:17:44;16.50;1.00
1005;DHT22;491;53.480;10.174;2023-04-25T11:20:12;16.20;1.00
1005;DHT22;491;53.480;10.174;2023-04-25T11:22:40;15.40;1.00
1005;DHT22;491;53.480;10.174;2023-04-25T11:25:07;14.80;1.00
1005;DHT22;491;53.480;10.174;2023-04-25T11:27:33;14.50;1.00
1005;DHT22;491;53.480;10.174;2023-04-25T11:29:58;14.40;1.00
1005;DHT22;491;53.480;10.174;2023-04-25T11:32:24;14.70;1.00
1005;DHT22;491;53.480;10.174;2023-04-25T11:34:49;15.40;1.00
1005;DHT22;491;53.480;10.174;2023-04-25T11:37:15;16.10;1.00
1005;DHT22;491;53.480;10.174;2023-04-25T11:39:45;16.90;1.00
1005;DHT22;491;53.480;10.174;2023-04-25T11:42:11;17.40;1.00
1005;DHT22;491;53.480;10.174;2023-04-25T11:44:38;18.30;1.00
1005;DHT22;491;53.480;10.174;2023-04-25T11:47:05;19.00;1.00
1005;DHT22;491;53.480;10.174;2023-04-25T11:49:31;19.30;1.00
1005;DHT22;491;53.480;10.174;2023-04-25T11:51:57;19.20;1.00
1005;DHT22;491;53.480;10.174;2023-04-25T11:54:23;18.60;1.00
1005;DHT22;491;53.480;10.174;2023-04-25T11:56:48;17.50;1.00
1005;DHT22;491;53.480;10.174;2023-04-25T11:59:16;15.60;1.00
1005;DHT22;491;53.480;10.174;2023-04-25T12:01:48;14.40;1.00
1005;DHT22;491;53.480;10.174;2023-04-25T12:04:21;13.60;1.00
1005;DHT22;491;53.480;10.174;2023-04-25T12:06:50;13.20;1.00
1005;DHT22;491;53.480;10.174;2023-04-25T12:09:17;13.10;1.00
1005;DHT22;491;53.480;10.174;2023-04-25T12:11:48;13.00;1.00
1005;DHT22;491;53.480;10.174;2023-04-25T12:14:22;12.70;1.00
1005;DHT22;491;53.480;10.174;2023-04-25T12:16:49;12.60;1.00
1005;DHT22;491;53.480;10.174;2023-04-25T12:19:17;12.60;1.00
1005;DHT22;491;53.480;10.174;2023-04-25T12:21:43;12.90;1.00
1005;DHT22;491;53.480;10.174;2023-04-25T12:24:12;13.80;1.00
1005;DHT22;491;53.480;10.174;2023-04-25T12:26:58;15.00;1.00
1005;DHT22;491;53.480;10.174;2023-04-25T12:29:25;16.00;1.00
1005;DHT22;491;53.480;10.174;2023-04-25T12:31:52;17.00;1.00
1005;DHT22;491;53.480;10.174;2023-04-25T12:34:19;17.60;1.00
1005;DHT22;491;53.480;10.174;2023-04-25T12:36:45;18.00;1.00
1005;DHT22;491;53.480;10.174;2023-04-25T12:39:24;18.40;1.00
1005;DHT22;491;53.480;10.174;2023-04-25T12:41:53;18.70;1.00
1005;DHT22;491;53.480;10.174;2023-04-25T12:44:20;19.00;1.00
1005;DHT22;491;53.480;10.174;2023-04-25T12:46:45;18.30;1.00
1005;DHT22;491;53.480;10.174;2023-04-25T12:49:11;17.60;1.00
1005;DHT22;491;53.480;10.174;2023-04-25T12:51:37;16.70;1.00
1005;DHT22;491;53.480;10.174;2023-04-25T12:54:04;16.30;1.00
1005;DHT22;491;53.480;10.174;2023-04-25T12:56:30;15.90;1.00
1005;DHT22;491;53.480;10.174;2023-04-25T12:58:56;15.30;1.00
1005;DHT22;491;53.480;10.174;2023-04-25T13:01:23;14.90;1.00
1005;DHT22;491;53.480;10.174;2023-04-25T13:03:48;15.30;1.00
1005;DHT22;491;53.480;10.174;2023-04-25T13:08:53;16.80;1.00
1005;DHT22;491;53.480;10.174;2023-04-25T13:11:19;17.00;1.00
1005;DHT22;491;53.480;10.174;2023-04-25T13:13:45;16.40;1.00
1005;DHT22;491;53.480;10.174;2023-04-25T13:16:11;16.00;1.00
1005;DHT22;491;53.480;10.174;2023-04-25T13:18:39;15.30;1.00
1005;DHT22;491;53.480;10.174;2023-04-25T13:21:04;14.80;1.00
1005;DHT22;491;53.480;10.174;2023-04-25T13:23:30;14.00;1.00
1005;DHT22;491;53.480;10.174;2023-04-25T13:25:56;13.60;1.00
1005;DHT22;491;53.480;10.174;2023-04-25T13:28:27;13.50;1.00
1005;DHT22;491;53.480;10.174;2023-04-25T13:30:52;13.80;1.00
1005;DHT22;491;53.480;10.174;2023-04-25T13:33:19;14.10;1.00
1005;DHT22;491;53.480;10.174;2023-04-25T13:35:45;14.40;1.00
1005;DHT22;491;53.480;10.174;2023-04-25T13:38:22;14.00;1.00
1005;DHT22;491;53.480;10.174;2023-04-25T13:40:49;13.20;1.00
1005;DHT22;491;53.480;10.174;2023-04-25T13:43:15;12.40;1.00
1005;DHT22;491;53.480;10.174;2023-04-25T13:45:41;11.90;1.00
1005;DHT22;491;53.480;10.174;2023-04-25T13:48:07;11.90;1.00
1005;DHT22;491;53.480;10.174;2023-04-25T13:50:35;11.70;1.00
1005;DHT22;491;53.480;10.174;2023-04-25T13:53:00;11.70;1.00
1005;DHT22;491;53.480;10.174;2023-04-25T13:55:26;12.00;1.00
1005;DHT22;491;53.480;10.174;2023-04-25T13:57:51;12.10;1.00
1005;DHT22;491;53.480;10.174;2023-04-25T14:00:17;12.10;1.00
1005;DHT22;491;53.480;10.174;2023-04-25T14:02:45;12.10;1.00
1005;DHT22;491;53.480;10.174;2023-04-25T14:05:11;12.30;1.00
1005;DHT22;491;53.480;10.174;2023-04-25T14:07:36;12.60;1.00
1005;DHT22;491;53.480;10.174;2023-04-25T14:10:03;12.70;1.00
1005;DHT22;491;53.480;10.174;2023-04-25T14:12:29;12.20;21.20
1005;DHT22;491;53.480;10.174;2023-04-25T14:14:55;11.50;99.90
1005;DHT22;491;53.480;10.174;2023-04-25T14:17:20;10.80;1.00
1005;DHT22;491;53.480;10.174;2023-04-25T14:19:46;10.70;1.00
1005;DHT22;491;53.480;10.174;2023-04-25T14:22:13;10.50;99.90
1005;DHT22;491;53.480;10.174;2023-04-25T14:24:39;10.40;1.00
1005;DHT22;491;53.480;10.174;2023-04-25T14:27:05;10.40;99.90
1005;DHT22;491;53.480;10.174;2023-04-25T14:29:31;10.50;1.00
1005;DHT22;491;53.480;10.174;2023-04-25T14:31:56;10.60;1.00
1005;DHT22;491;53.480;10.174;2023-04-25T14:34:24;10.60;99.90
1005;DHT22;491;53.480;10.174;2023-04-25T14:36:53;10.90;1.00
1005;DHT22;491;53.480;10.174;2023-04-25T14:39:22;11.20;99.90
1005;DHT22;491;53.480;10.174;2023-04-25T14:41:47;11.50;1.00
1005;DHT22;491;53.480;10.174;2023-04-25T14:44:12;11.80;1.00
1005;DHT22;491;53.480;10.174;2023-04-25T14:46:38;11.90;99.90
1005;DHT22;491;53.480;10.174;2023-04-25T14:49:04;12.00;99.90
1005;DHT22;491;53.480;10.174;2023-04-25T14:51:30;12.00;67.10
1005;DHT22;491;53.480;10.174;2023-04-25T14:53:56;11.90;33.10
1005;DHT22;491;53.480;10.174;2023-04-25T14:56:22;11.80;26.40
1005;DHT22;491;53.480;10.174;2023-04-25T14:58:47;11.60;15.80
1005;DHT22;491;53.480;10.174;2023-04-25T15:01:14;11.40;25.10
1005;DHT22;491;53.480;10.174;2023-04-25T15:03:40;11.30;26.80
1005;DHT22;491;53.480;10.174;2023-04-25T15:06:06;11.40;99.90
1005;DHT22;491;53.480;10.174;2023-04-25T15:08:32;11.50;23.30
1005;DHT22;491;53.480;10.174;2023-04-25T15:10:58;11.50;15.30
1005;DHT22;491;53.480;10.174;2023-04-25T15:13:24;11.60;6.40
1005;DHT22;491;53.480;10.174;2023-04-25T15:15:50;11.70;36.00
1005;DHT22;491;53.480;10.174;2023-04-25T15:18:17;11.80;4.50
1005;DHT22;491;53.480;10.174;2023-04-25T15:20:43;11.80;1.00
1005;DHT22;491;53.480;10.174;2023-04-25T15:23:10;11.70;1.00
1005;DHT22;491;53.480;10.174;2023-04-25T15:25:36;11.60;1.00
1005;DHT22;491;53.480;10.174;2023-04-25T15:28:01;11.50;1.00
1005;DHT22;491;53.480;10.174;2023-04-25T15:30:28;11.50;1.00
1005;DHT22;491;53.480;10.174;2023-04-25T15:32:53;11.20;1.00
1005;DHT22;491;53.480;10.174;2023-04-25T15:35:19;10.90;53.10
1005;DHT22;491;53.480;10.174;2023-04-25T15:37:47;10.60;99.90
1005;DHT22;491;53.480;10.174;2023-04-25T15:40:15;10.50;1.00
1005;DHT22;491;53.480;10.174;2023-04-25T15:42:46;10.50;40.80
1005;DHT22;491;53.480;10.174;2023-04-25T15:45:13;10.40;1.00
1005;DHT22;491;53.480;10.174;2023-04-25T15:47:39;10.70;1.00
1005;DHT22;491;53.480;10.174;2023-04-25T15:50:06;10.90;99.90
1005;DHT22;491;53.480;10.174;2023-04-25T15:52:33;11.10;99.90
1005;DHT22;491;53.480;10.174;2023-04-25T15:54:59;11.10;99.90
1005;DHT22;491;53.480;10.174;2023-04-25T15:57:25;11.20;92.90
1005;DHT22;491;53.480;10.174;2023-04-25T15:59:51;11.10;91.30
1005;DHT22;491;53.480;10.174;2023-04-25T16:02:17;11.00;62.90
1005;DHT22;491;53.480;10.174;2023-04-25T16:04:44;10.80;76.20
1005;DHT22;491;53.480;10.174;2023-04-25T16:07:10;10.70;90.80
1005;DHT22;491;53.480;10.174;2023-04-25T16:09:36;10.60;99.20
1005;DHT22;491;53.480;10.174;2023-04-25T16:12:02;10.70;99.90
1005;DHT22;491;53.480;10.174;2023-04-25T16:14:28;10.70;99.90
1005;DHT22;491;53.480;10.174;2023-04-25T16:16:53;10.70;89.10
1005;DHT22;491;53.480;10.174;2023-04-25T16:19:19;10.60;36.40
1005;DHT22;491;53.480;10.174;2023-04-25T16:21:44;10.50;30.40
1005;DHT22;491;53.480;10.174;2023-04-25T16:24:10;10.30;28.30